Disclaimer

Please do not use the information listed here in-flight or in-navigation, as they are not provided to us by the airports but are provided by volunteers, so they might be outdated.

Search


Regions


Airport information page

Radio informations:
Tower (TWR) - 118.1 MHz
RDO - 3488 MHz

Airport informations:
Latitude: 06° 11' 04.98" N
Longitude: 067° 29' 35.39" W
Elevation: 177 feet - 54 meters
Operating hours: Remarks
Operating agency: Civil government, landing fees and diplomatic clearance may be required
Timezone: UTC-5
Fuel: 100/130 octane gasoline, leaded, MIL-L-5572F (GREEN)

Runway information:
07/25 - 5907 x 69 feet< - >1800 x 21 meters

Recent METARs:
SKPC 211100Z 06003KT 9999 BKN070 26/24 A2983

Airport on the map: